Time;durP1;ratioP1;P1;durP2;ratioP2;P2;SDS_P1;SDS_P2;PMS_P1;PMS_P2;Temp;Humidity;BMP_temperature;BMP_pressure;BME280_temperature;BME280_humidity;BME280_pressure;Samples;Min_cycle;Max_cycle;Signal;HPM_P1;HPM_P2
2022/09/30 00:00:33;;;;;;;2.47;1.80;;;;;;;-146.19;100.00;65364.44;10327696;28;20050;-59
2022/09/30 00:06:10;;;;;;;2.00;1.80;;;;;;;-146.19;100.00;65364.44;10349514;28;20043;-60
2022/09/30 00:11:32;;;;;;;3.55;2.05;;;;;;;-146.19;100.00;65364.44;10331386;28;20055;-59
2022/09/30 00:16:52;;;;;;;2.35;1.75;;;;;;;-146.19;100.00;65364.44;10337161;28;20080;-60
2022/09/30 00:22:11;;;;;;;2.20;1.75;;;;;;;-146.19;100.00;65364.44;10334513;28;20058;-60
2022/09/30 00:27:30;;;;;;;2.22;2.03;;;;;;;-146.19;100.00;65364.44;10329369;28;20050;-61
2022/09/30 00:32:50;;;;;;;1.73;1.60;;;;;;;-146.19;100.00;65364.44;10334043;28;20086;-60
2022/09/30 00:38:09;;;;;;;2.10;1.90;;;;;;;-146.19;100.00;65364.44;10342000;28;20042;-60
2022/09/30 00:43:42;;;;;;;2.38;1.70;;;;;;;-146.19;100.00;65364.44;10328913;28;20055;-60
2022/09/30 00:49:10;;;;;;;1.65;1.55;;;;;;;-146.19;100.00;65364.44;10309571;28;20063;-60
2022/09/30 00:54:30;;;;;;;2.03;1.80;;;;;;;-146.19;100.00;65364.44;10317298;28;20069;-60
2022/09/30 00:59:50;;;;;;;1.90;1.55;;;;;;;-146.19;100.00;65364.44;10325101;28;20462;-60
2022/09/30 01:05:10;;;;;;;1.60;1.50;;;;;;;-146.19;100.00;65364.44;10330335;28;20133;-60
2022/09/30 01:10:30;;;;;;;2.05;1.75;;;;;;;-146.19;100.00;65364.44;10308088;28;20054;-61
2022/09/30 01:16:27;;;;;;;1.60;1.50;;;;;;;-146.19;100.00;65364.44;10320937;28;20058;-60
2022/09/30 01:22:08;;;;;;;1.58;1.48;;;;;;;-146.19;100.00;65364.44;10285774;28;20074;-60
2022/09/30 01:27:46;;;;;;;2.30;2.10;;;;;;;-146.19;100.00;65364.44;10305065;28;20053;-60
2022/09/30 01:33:29;;;;;;;1.50;1.40;;;;;;;-146.19;100.00;65364.44;10289501;28;20054;-60
2022/09/30 01:39:02;;;;;;;1.83;1.63;;;;;;;-146.19;100.00;65364.44;10271328;28;20366;-61
2022/09/30 01:44:49;;;;;;;1.90;1.40;;;;;;;-146.19;100.00;65364.44;10300729;28;20405;-60
2022/09/30 01:50:15;;;;;;;2.00;1.80;;;;;;;-146.19;100.00;65364.44;10332091;28;20062;-60
2022/09/30 01:55:53;;;;;;;1.60;1.50;;;;;;;-146.19;100.00;65364.44;10305720;28;20058;-60
2022/09/30 02:01:18;;;;;;;1.77;1.60;;;;;;;-146.19;100.00;65364.44;10330541;28;20494;-60
2022/09/30 02:06:41;;;;;;;1.85;1.75;;;;;;;-146.19;100.00;65364.44;10316574;28;20058;-58
2022/09/30 02:12:04;;;;;;;1.70;1.55;;;;;;;-146.19;100.00;65364.44;10313246;28;20034;-60
2022/09/30 02:17:27;;;;;;;1.60;1.50;;;;;;;-146.19;100.00;65364.44;10299586;28;20053;-61
2022/09/30 02:23:11;;;;;;;2.42;1.77;;;;;;;-146.19;100.00;65364.44;10292080;28;20054;-60
2022/09/30 02:28:30;;;;;;;1.67;1.48;;;;;;;-146.19;100.00;65364.44;10285641;28;20078;-60
2022/09/30 02:33:55;;;;;;;2.00;1.50;;;;;;;-146.19;100.00;65364.44;10294870;28;20059;-61
2022/09/30 02:39:37;;;;;;;1.42;1.33;;;;;;;-146.19;100.00;65364.44;10300439;28;20059;-60
2022/09/30 02:45:11;;;;;;;1.98;1.70;;;;;;;-146.19;100.00;65364.44;10331035;28;20050;-60
2022/09/30 02:50:40;;;;;;;1.77;1.60;;;;;;;-146.19;100.00;65364.44;10331069;28;20113;-60
2022/09/30 02:56:32;;;;;;;1.55;1.45;;;;;;;-146.19;100.00;65364.44;10289180;28;20047;-60
2022/09/30 03:01:51;;;;;;;1.50;1.40;;;;;;;-146.19;100.00;65364.44;10285710;28;20055;-60
2022/09/30 03:07:11;;;;;;;1.60;1.45;;;;;;;-146.19;100.00;65364.44;10298626;28;20074;-61
2022/09/30 03:12:44;;;;;;;1.65;1.55;;;;;;;-146.19;100.00;65364.44;10307256;28;20406;-59
2022/09/30 03:18:32;;;;;;;1.50;1.40;;;;;;;-146.19;100.00;65364.44;10288538;28;20062;-61
2022/09/30 03:24:30;;;;;;;1.60;1.50;;;;;;;-146.19;100.00;65364.44;10279048;28;20054;-60
2022/09/30 03:29:52;;;;;;;1.50;1.40;;;;;;;-146.19;100.00;65364.44;10275986;28;20505;-60
2022/09/30 03:35:46;;;;;;;1.65;1.55;;;;;;;-146.19;100.00;65364.44;10293658;28;20051;-59
2022/09/30 03:41:30;;;;;;;1.83;1.60;;;;;;;-146.19;100.00;65364.44;10285238;28;20051;-60
2022/09/30 03:47:01;;;;;;;1.83;1.73;;;;;;;-146.19;100.00;65364.44;10289575;28;20061;-60
2022/09/30 03:52:22;;;;;;;1.67;1.55;;;;;;;-146.19;100.00;65364.44;10302838;28;20063;-60
2022/09/30 03:57:43;;;;;;;2.28;1.65;;;;;;;-146.19;100.00;65364.44;10322603;28;20057;-60
2022/09/30 04:03:03;;;;;;;1.58;1.48;;;;;;;-146.19;100.00;65364.44;10309662;28;20426;-61
2022/09/30 04:08:22;;;;;;;1.40;1.30;;;;;;;-146.19;100.00;65364.44;10313342;28;20104;-61
2022/09/30 04:13:41;;;;;;;1.40;1.30;;;;;;;-146.19;100.00;65364.44;10297467;28;20055;-60
2022/09/30 04:19:00;;;;;;;1.77;1.63;;;;;;;-146.19;100.00;65364.44;10296467;28;20047;-60
2022/09/30 04:24:21;;;;;;;1.70;1.60;;;;;;;-146.19;100.00;65364.44;10307281;28;20133;-59
2022/09/30 04:29:40;;;;;;;2.00;1.50;;;;;;;-146.19;100.00;65364.44;10307698;28;20061;-61
2022/09/30 04:34:59;;;;;;;2.25;1.33;;;;;;;-146.19;100.00;65364.44;10309170;28;20039;-60
2022/09/30 04:40:19;;;;;;;1.95;1.52;;;;;;;-146.19;100.00;65364.44;10286580;28;20114;-61
2022/09/30 04:45:43;;;;;;;1.88;1.50;;;;;;;-146.19;100.00;65364.44;10296364;28;20051;-60
2022/09/30 04:51:02;;;;;;;1.52;1.42;;;;;;;-146.19;100.00;65364.44;10297667;28;20518;-60
2022/09/30 04:56:25;;;;;;;1.58;1.27;;;;;;;-146.19;100.00;65364.44;10297920;28;20047;-60
2022/09/30 05:01:44;;;;;;;1.80;1.70;;;;;;;-146.19;100.00;65364.44;10295323;28;20063;-60
2022/09/30 05:07:07;;;;;;;3.10;2.00;;;;;;;-146.19;100.00;65364.44;10314013;28;20047;-61
2022/09/30 05:12:27;;;;;;;2.35;2.10;;;;;;;-146.19;100.00;65364.44;10321016;28;20410;-60
2022/09/30 05:17:48;;;;;;;2.35;1.88;;;;;;;-146.19;100.00;65364.44;10308080;28;20054;-60
2022/09/30 05:23:08;;;;;;;7.00;4.18;;;;;;;-146.19;100.00;65364.44;10301882;28;20101;-60
2022/09/30 05:28:30;;;;;;;10.20;4.18;;;;;;;-146.19;100.00;65364.44;10319885;28;20069;-61
2022/09/30 05:33:49;;;;;;;8.68;3.42;;;;;;;-146.19;100.00;65364.44;10296711;28;20077;-61
2022/09/30 05:39:09;;;;;;;9.25;3.50;;;;;;;-146.19;100.00;65364.44;10291041;28;20066;-60
2022/09/30 05:44:29;;;;;;;10.20;3.67;;;;;;;-146.19;100.00;65364.44;10281770;28;20204;-61
2022/09/30 05:49:48;;;;;;;8.80;3.20;;;;;;;-146.19;100.00;65364.44;10293206;28;20484;-61
2022/09/30 05:55:08;;;;;;;5.30;3.22;;;;;;;-146.19;100.00;65364.44;10292976;28;20098;-60
2022/09/30 06:00:28;;;;;;;9.48;3.50;;;;;;;-146.19;100.00;65364.44;10296089;28;20396;-59
2022/09/30 06:05:48;;;;;;;6.55;3.10;;;;;;;-146.19;100.00;65364.44;10297498;28;20494;-60
2022/09/30 06:11:14;;;;;;;8.02;3.40;;;;;;;-146.19;100.00;65364.44;10278317;28;20081;-60
2022/09/30 06:16:33;;;;;;;8.38;3.35;;;;;;;-146.19;100.00;65364.44;10311464;28;20406;-59
2022/09/30 06:21:52;;;;;;;7.10;3.55;;;;;;;-146.19;100.00;65364.44;10295274;28;20065;-60
2022/09/30 06:27:12;;;;;;;5.60;3.45;;;;;;;-146.19;100.00;65364.44;10279927;28;20047;-60
2022/09/30 06:32:31;;;;;;;6.15;3.10;;;;;;;-146.19;100.00;65364.44;10289340;28;20457;-60
2022/09/30 06:37:51;;;;;;;6.57;3.15;;;;;;;-146.19;100.00;65364.44;10291338;28;20061;-58
2022/09/30 06:43:10;;;;;;;7.45;2.97;;;;;;;-146.19;100.00;65364.44;10285544;28;20518;-60
2022/09/30 06:48:30;;;;;;;6.90;3.63;;;;;;;-146.19;100.00;65364.44;10286210;28;20423;-60
2022/09/30 06:53:51;;;;;;;5.75;2.88;;;;;;;-146.19;100.00;65364.44;10298967;28;20043;-59
2022/09/30 06:59:10;;;;;;;4.90;3.47;;;;;;;-146.19;100.00;65364.44;10291953;28;20050;-60
2022/09/30 07:04:30;;;;;;;6.80;3.75;;;;;;;-146.19;100.00;65364.44;10307311;28;20077;-60
2022/09/30 07:09:50;;;;;;;5.63;3.40;;;;;;;-146.19;100.00;65364.44;10290514;28;20055;-61
2022/09/30 07:15:09;;;;;;;9.30;5.85;;;;;;;-146.19;100.00;65364.44;10313247;28;20065;-61
2022/09/30 07:20:29;;;;;;;8.10;3.53;;;;;;;-146.19;100.00;65364.44;10302219;28;20061;-60
2022/09/30 07:25:57;;;;;;;4.90;3.42;;;;;;;-146.19;100.00;65364.44;10298581;28;20085;-60
2022/09/30 07:31:20;;;;;;;7.70;3.35;;;;;;;-146.19;100.00;65364.44;10296618;28;20121;-58
2022/09/30 07:36:40;;;;;;;6.05;4.00;;;;;;;-146.19;100.00;65364.44;10299381;28;20093;-60
2022/09/30 07:42:01;;;;;;;7.85;5.60;;;;;;;-146.19;100.00;65364.44;10302386;28;20058;-61
2022/09/30 07:47:20;;;;;;;7.30;4.80;;;;;;;-146.19;100.00;65364.44;10318238;28;20051;-61
2022/09/30 07:52:39;;;;;;;5.65;4.03;;;;;;;-146.19;100.00;65364.44;10297388;28;20525;-60
2022/09/30 07:57:58;;;;;;;4.85;4.22;;;;;;;-146.19;100.00;65364.44;10297195;28;20054;-60
2022/09/30 08:03:18;;;;;;;5.55;4.57;;;;;;;-146.19;100.00;65364.44;10297743;28;20130;-60
2022/09/30 08:08:37;;;;;;;6.35;5.05;;;;;;;-146.19;100.00;65364.44;10297576;28;20054;-60
2022/09/30 08:13:57;;;;;;;5.30;4.40;;;;;;;-146.19;100.00;65364.44;10297422;28;20062;-61
2022/09/30 08:19:21;;;;;;;6.40;4.28;;;;;;;-146.19;100.00;65364.44;10319157;28;20050;-59
2022/09/30 08:24:41;;;;;;;7.90;4.32;;;;;;;-146.19;100.00;65364.44;10296151;28;20054;-61
2022/09/30 08:30:00;;;;;;;6.55;4.72;;;;;;;-146.19;100.00;65364.44;10295999;28;20520;-59
2022/09/30 08:35:20;;;;;;;11.73;8.30;;;;;;;-146.19;100.00;65364.44;10299817;28;20125;-60
2022/09/30 08:40:53;;;;;;;10.38;9.10;;;;;;;-146.19;100.00;65364.44;10338616;28;20043;-60
2022/09/30 08:46:15;;;;;;;12.57;10.77;;;;;;;-146.19;100.00;65364.44;10280271;28;20604;-60
2022/09/30 08:51:46;;;;;;;13.82;10.10;;;;;;;-146.19;100.00;65364.44;10304552;28;20430;-60
2022/09/30 08:57:07;;;;;;;11.52;10.20;;;;;;;-146.19;100.00;65364.44;10288336;28;20043;-62
2022/09/30 09:02:32;;;;;;;9.23;8.32;;;;;;;-146.19;100.00;65364.44;10303960;28;20061;-59
2022/09/30 09:07:59;;;;;;;7.10;6.15;;;;;;;-146.19;100.00;65364.44;10313661;28;20434;-59
2022/09/30 09:13:37;;;;;;;8.25;5.93;;;;;;;-146.19;100.00;65364.44;10304874;28;20126;-60
2022/09/30 09:19:23;;;;;;;6.50;5.17;;;;;;;-146.19;100.00;65364.44;10287881;28;20050;-59
2022/09/30 09:24:46;;;;;;;7.80;6.25;;;;;;;-146.19;100.00;65364.44;10306778;28;20298;-59
2022/09/30 09:30:06;;;;;;;6.38;4.72;;;;;;;-146.19;100.00;65364.44;10276153;28;20109;-59
2022/09/30 09:35:53;;;;;;;6.45;4.50;;;;;;;-146.19;100.00;65364.44;10299672;28;20117;-60
2022/09/30 09:41:40;;;;;;;6.13;4.30;;;;;;;-146.19;100.00;65364.44;10298259;28;20066;-61
2022/09/30 09:47:04;;;;;;;8.55;4.40;;;;;;;-146.19;100.00;65364.44;10290098;28;20051;-60
2022/09/30 09:52:43;;;;;;;4.75;3.85;;;;;;;-146.19;100.00;65364.44;10289577;28;20059;-60
2022/09/30 09:58:06;;;;;;;;;;;;;;;-146.19;100.00;65364.44;10274359;28;20414;-61
2022/09/30 10:09:43;;;;;;;6.20;3.70;;;;;;;-146.19;100.00;65364.44;10297111;28;20100;-61
2022/09/30 10:15:14;;;;;;;5.35;3.63;;;;;;;-146.19;100.00;65364.44;10292049;28;20105;-61
2022/09/30 10:20:36;;;;;;;4.53;3.88;;;;;;;-146.19;100.00;65364.44;10286895;28;20096;-62
2022/09/30 10:26:02;;;;;;;6.15;3.83;;;;;;;-146.19;100.00;65364.44;10304979;28;20051;-62
2022/09/30 10:31:35;;;;;;;9.35;4.82;;;;;;;-146.19;100.00;65364.44;10295863;28;20042;-61
2022/09/30 10:36:56;;;;;;;6.10;4.97;;;;;;;-146.19;100.00;65364.44;10310986;28;20055;-62
2022/09/30 10:42:20;;;;;;;6.18;4.80;;;;;;;-146.19;100.00;65364.44;10306606;28;20055;-61
2022/09/30 10:47:43;;;;;;;5.50;4.05;;;;;;;-146.19;100.00;65364.44;10259408;28;20055;-59
2022/09/30 10:53:19;;;;;;;4.63;3.70;;;;;;;-146.19;100.00;65364.44;10292769;28;20035;-61
2022/09/30 10:58:45;;;;;;;3.95;3.38;;;;;;;-146.19;100.00;65364.44;10309481;28;20054;-61
2022/09/30 11:04:40;;;;;;;4.45;3.40;;;;;;;-146.19;100.00;65364.44;10286528;28;20142;-62
2022/09/30 11:10:06;;;;;;;8.65;3.65;;;;;;;-146.19;100.00;65364.44;10303866;28;20117;-61
2022/09/30 11:15:56;;;;;;;4.53;3.40;;;;;;;-146.19;100.00;65364.44;10285933;28;20046;-61
2022/09/30 11:21:32;;;;;;;3.92;3.20;;;;;;;-146.19;100.00;65364.44;10295992;28;20061;-60
2022/09/30 11:27:00;;;;;;;4.03;2.78;;;;;;;-146.19;100.00;65364.44;10288462;28;20051;-61
2022/09/30 11:32:42;;;;;;;4.60;2.67;;;;;;;-146.19;100.00;65364.44;10299017;28;20138;-60
2022/09/30 11:38:20;;;;;;;5.10;3.05;;;;;;;-146.19;100.00;65364.44;10309532;28;20050;-61
2022/09/30 11:43:39;;;;;;;3.90;3.22;;;;;;;-146.19;100.00;65364.44;10304706;28;20062;-58
2022/09/30 11:49:04;;;;;;;3.15;2.78;;;;;;;-146.19;100.00;65364.44;10320359;28;20108;-61
2022/09/30 11:54:32;;;;;;;3.13;2.45;;;;;;;-146.19;100.00;65364.44;10299098;28;20066;-61
2022/09/30 11:59:56;;;;;;;3.63;2.15;;;;;;;-146.19;100.00;65364.44;10299098;28;20051;-60
2022/09/30 12:05:28;;;;;;;2.83;1.70;;;;;;;-146.19;100.00;65364.44;10299887;28;20379;-61
2022/09/30 12:10:54;;;;;;;2.55;1.92;;;;;;;-146.19;100.00;65364.44;10298243;28;20404;-60
2022/09/30 12:16:20;;;;;;;1.95;1.75;;;;;;;-146.19;100.00;65364.44;10286541;28;20101;-60
2022/09/30 12:22:04;;;;;;;1.98;1.77;;;;;;;-146.19;100.00;65364.44;10288566;28;20062;-61
2022/09/30 12:27:35;;;;;;;2.67;1.88;;;;;;;-146.19;100.00;65364.44;10311013;28;20061;-61
2022/09/30 12:33:15;;;;;;;3.17;2.75;;;;;;;-146.19;100.00;65364.44;10302314;28;20054;-61
2022/09/30 12:39:48;;;;;;;2.58;2.30;;;;;;;-146.19;100.00;65364.44;10309081;28;20058;-61
2022/09/30 12:45:34;;;;;;;4.47;2.28;;;;;;;-146.19;100.00;65364.44;10083008;29;20052;-61
2022/09/30 12:50:56;;;;;;;2.58;2.20;;;;;;;-146.19;100.00;65364.44;10285996;28;20525;-60
2022/09/30 12:56:16;;;;;;;3.53;1.98;;;;;;;-146.19;100.00;65364.44;10281271;28;20051;-60
2022/09/30 13:01:37;;;;;;;2.42;2.05;;;;;;;-146.19;100.00;65364.44;10303119;28;20457;-61
2022/09/30 13:06:56;;;;;;;3.25;2.25;;;;;;;-146.19;100.00;65364.44;10305698;28;20521;-60
2022/09/30 13:12:24;;;;;;;2.85;2.30;;;;;;;-146.19;100.00;65364.44;10308369;28;20050;-56
2022/09/30 13:17:44;;;;;;;3.33;2.55;;;;;;;-146.19;100.00;65364.44;10286815;28;20051;-60
2022/09/30 13:23:04;;;;;;;2.78;2.50;;;;;;;-146.19;100.00;65364.44;10298258;28;20070;-59
2022/09/30 13:28:29;;;;;;;3.08;2.67;;;;;;;-146.19;100.00;65364.44;10297155;28;20118;-61
2022/09/30 13:34:01;;;;;;;3.50;2.63;;;;;;;-146.19;100.00;65364.44;10305649;28;20066;-59
2022/09/30 13:39:23;;;;;;;3.03;2.45;;;;;;;-146.19;100.00;65364.44;10309707;28;20050;-60
2022/09/30 13:44:45;;;;;;;3.10;2.80;;;;;;;-146.19;100.00;65364.44;10293090;28;20058;-61
2022/09/30 13:50:14;;;;;;;3.28;2.50;;;;;;;-146.19;100.00;65364.44;10312756;28;20471;-59
2022/09/30 13:55:38;;;;;;;2.45;2.22;;;;;;;-146.19;100.00;65364.44;10299102;28;20046;-61
2022/09/30 14:01:01;;;;;;;2.85;2.25;;;;;;;-146.19;100.00;65364.44;10296381;28;20046;-61
2022/09/30 14:06:44;;;;;;;2.55;2.00;;;;;;;-146.19;100.00;65364.44;10307571;28;20042;-61
2022/09/30 14:12:29;;;;;;;2.63;2.13;;;;;;;-146.19;100.00;65364.44;10277564;28;20062;-61
2022/09/30 14:17:59;;;;;;;3.33;2.30;;;;;;;-146.19;100.00;65364.44;10292361;28;20059;-61
2022/09/30 14:23:19;;;;;;;4.70;2.47;;;;;;;-146.19;100.00;65364.44;10316716;28;20410;-60
2022/09/30 14:28:47;;;;;;;4.97;2.20;;;;;;;-146.19;100.00;65364.44;10314303;28;20050;-60
2022/09/30 14:34:08;;;;;;;2.72;2.33;;;;;;;-146.19;100.00;65364.44;10294728;28;20066;-62
2022/09/30 14:39:29;;;;;;;4.35;2.25;;;;;;;-146.19;100.00;65364.44;10277511;28;20061;-61
2022/09/30 14:44:50;;;;;;;4.03;2.25;;;;;;;-146.19;100.00;65364.44;10282425;28;20082;-61
2022/09/30 14:50:18;;;;;;;5.55;2.70;;;;;;;-146.19;100.00;65364.44;10297108;28;20093;-61
2022/09/30 14:55:38;;;;;;;;;;;;;;;-146.19;100.00;65364.44;10301596;28;20519;-61
2022/09/30 15:01:08;;;;;;;8.38;3.42;;;;;;;-146.19;100.00;65364.44;10305401;28;19922;-62
2022/09/30 15:06:31;;;;;;;5.28;2.65;;;;;;;-146.19;100.00;65364.44;10296940;28;20061;-61
2022/09/30 15:11:50;;;;;;;10.05;3.40;;;;;;;-146.19;100.00;65364.44;10279589;28;20047;-61
2022/09/30 15:17:20;;;;;;;8.73;3.70;;;;;;;-146.19;100.00;65364.44;10291695;28;20055;-60
2022/09/30 15:22:39;;;;;;;10.43;3.58;;;;;;;-146.19;100.00;65364.44;10294077;28;20058;-61
2022/09/30 15:27:59;;;;;;;8.05;3.20;;;;;;;-146.19;100.00;65364.44;10276148;28;20047;-61
2022/09/30 15:33:30;;;;;;;8.13;3.10;;;;;;;-146.19;100.00;65364.44;10303832;28;20046;-61
2022/09/30 15:38:50;;;;;;;8.77;3.58;;;;;;;-146.19;100.00;65364.44;10299591;28;20047;-59
2022/09/30 15:44:36;;;;;;;7.22;3.10;;;;;;;-146.19;100.00;65364.44;10302174;28;20063;-56
2022/09/30 15:49:56;;;;;;;5.75;3.08;;;;;;;-146.19;100.00;65364.44;10285934;28;20070;-60
2022/09/30 15:55:41;;;;;;;7.07;2.90;;;;;;;-146.19;100.00;65364.44;10309286;28;20054;-61
2022/09/30 16:01:23;;;;;;;8.27;3.05;;;;;;;-146.19;100.00;65364.44;10300659;28;20451;-61
2022/09/30 16:06:51;;;;;;;7.28;3.10;;;;;;;-146.19;100.00;65364.44;10303562;28;20509;-61
2022/09/30 16:12:11;;;;;;;6.72;3.42;;;;;;;-146.19;100.00;65364.44;10293122;28;20498;-58
2022/09/30 16:17:32;;;;;;;5.95;3.08;;;;;;;-146.19;100.00;65364.44;10299379;28;20046;-61
2022/09/30 16:22:53;;;;;;;5.45;2.95;;;;;;;-146.19;100.00;65364.44;10286519;28;20066;-60
2022/09/30 16:28:14;;;;;;;6.05;2.97;;;;;;;-146.19;100.00;65364.44;10296289;28;20055;-61
2022/09/30 16:33:36;;;;;;;6.03;2.80;;;;;;;-146.19;100.00;65364.44;10297343;28;20050;-61
2022/09/30 16:38:56;;;;;;;4.57;2.85;;;;;;;-146.19;100.00;65364.44;10295735;28;20438;-61
2022/09/30 16:44:15;;;;;;;5.22;2.78;;;;;;;-146.19;100.00;65364.44;10317129;28;20046;-61
2022/09/30 16:49:35;;;;;;;5.38;2.80;;;;;;;-146.19;100.00;65364.44;10311033;28;20423;-57
2022/09/30 16:54:54;;;;;;;5.88;3.00;;;;;;;-146.19;100.00;65364.44;10297098;28;20077;-61
2022/09/30 17:00:16;;;;;;;7.80;2.40;;;;;;;-146.19;100.00;65364.44;10308127;28;20458;-61
2022/09/30 17:05:38;;;;;;;5.07;2.20;;;;;;;-146.19;100.00;65364.44;10296253;28;20046;-60
2022/09/30 17:10:58;;;;;;;4.18;2.42;;;;;;;-146.19;100.00;65364.44;10311832;28;20097;-61
2022/09/30 17:16:17;;;;;;;4.82;2.45;;;;;;;-146.19;100.00;65364.44;10328903;28;20050;-58
2022/09/30 17:21:36;;;;;;;4.57;2.40;;;;;;;-146.19;100.00;65364.44;10289962;28;20046;-60
2022/09/30 17:26:56;;;;;;;3.83;2.17;;;;;;;-146.19;100.00;65364.44;10293784;28;20498;-61
2022/09/30 17:32:16;;;;;;;31.45;3.63;;;;;;;-146.19;100.00;65364.44;10293322;28;20495;-60
2022/09/30 17:37:41;;;;;;;4.68;2.45;;;;;;;-146.19;100.00;65364.44;10294214;28;20077;-61
2022/09/30 17:43:06;;;;;;;18.70;2.75;;;;;;;-146.19;100.00;65364.44;10294422;28;20070;-61
2022/09/30 17:48:26;;;;;;;3.90;1.95;;;;;;;-146.19;100.00;65364.44;10325055;28;20050;-59
2022/09/30 17:53:47;;;;;;;2.53;1.80;;;;;;;-146.19;100.00;65364.44;10304131;28;20054;-61
2022/09/30 17:59:08;;;;;;;4.13;2.20;;;;;;;-146.19;100.00;65364.44;10292697;28;20063;-60
2022/09/30 18:04:28;;;;;;;3.17;1.98;;;;;;;-146.19;100.00;65364.44;10293516;28;20059;-61
2022/09/30 18:09:47;;;;;;;2.88;2.03;;;;;;;-146.19;100.00;65364.44;10294795;28;20105;-61
2022/09/30 18:15:08;;;;;;;3.67;2.20;;;;;;;-146.19;100.00;65364.44;10291936;28;20071;-61
2022/09/30 18:20:28;;;;;;;3.20;1.80;;;;;;;-146.19;100.00;65364.44;10308054;28;20516;-61
2022/09/30 18:25:48;;;;;;;3.28;2.40;;;;;;;-146.19;100.00;65364.44;10317706;28;20042;-61
2022/09/30 18:31:08;;;;;;;2.88;1.98;;;;;;;-146.19;100.00;65364.44;10288978;28;20050;-61
2022/09/30 18:36:31;;;;;;;2.78;1.70;;;;;;;-146.19;100.00;65364.44;10291769;28;20082;-61
2022/09/30 18:41:51;;;;;;;3.10;2.03;;;;;;;-146.19;100.00;65364.44;10285155;28;20105;-61
2022/09/30 18:47:10;;;;;;;3.17;1.95;;;;;;;-146.19;100.00;65364.44;10303465;28;20401;-61
2022/09/30 18:52:30;;;;;;;5.45;2.15;;;;;;;-146.19;100.00;65364.44;10290711;28;20070;-61
2022/09/30 18:57:52;;;;;;;3.15;2.20;;;;;;;-146.19;100.00;65364.44;10293939;28;20050;-61
2022/09/30 19:03:14;;;;;;;3.50;2.00;;;;;;;-146.19;100.00;65364.44;10291513;28;20137;-60
2022/09/30 19:08:36;;;;;;;3.88;2.00;;;;;;;-146.19;100.00;65364.44;10290904;28;20109;-61
2022/09/30 19:13:57;;;;;;;3.42;2.10;;;;;;;-146.19;100.00;65364.44;10290976;28;20109;-61
2022/09/30 19:19:19;;;;;;;2.97;2.10;;;;;;;-146.19;100.00;65364.44;10317096;28;20046;-57
2022/09/30 19:24:43;;;;;;;4.38;2.20;;;;;;;-146.19;100.00;65364.44;10291395;28;20145;-61
2022/09/30 19:30:06;;;;;;;3.38;2.20;;;;;;;-146.19;100.00;65364.44;10298258;28;20059;-61
2022/09/30 19:35:27;;;;;;;2.63;1.83;;;;;;;-146.19;100.00;65364.44;10310541;28;20042;-61
2022/09/30 19:40:54;;;;;;;3.85;1.90;;;;;;;-146.19;100.00;65364.44;10309402;28;20054;-60
2022/09/30 19:46:13;;;;;;;3.45;2.00;;;;;;;-146.19;100.00;65364.44;10299737;28;20097;-60
2022/09/30 19:51:33;;;;;;;2.95;2.10;;;;;;;-146.19;100.00;65364.44;10297785;28;20093;-61
2022/09/30 19:56:52;;;;;;;2.67;2.00;;;;;;;-146.19;100.00;65364.44;10311186;28;20058;-61
2022/09/30 20:02:12;;;;;;;3.30;2.22;;;;;;;-146.19;100.00;65364.44;10300516;28;20051;-61
2022/09/30 20:07:31;;;;;;;3.33;1.90;;;;;;;-146.19;100.00;65364.44;10308606;28;20050;-61
2022/09/30 20:12:51;;;;;;;2.45;2.08;;;;;;;-146.19;100.00;65364.44;10313222;28;20079;-61
2022/09/30 20:18:11;;;;;;;2.88;2.00;;;;;;;-146.19;100.00;65364.44;10305014;28;20406;-61
2022/09/30 20:23:35;;;;;;;2.78;1.85;;;;;;;-146.19;100.00;65364.44;10310538;28;20042;-61
2022/09/30 20:28:59;;;;;;;2.95;2.00;;;;;;;-146.19;100.00;65364.44;10312066;28;20034;-61
2022/09/30 20:34:19;;;;;;;2.22;1.83;;;;;;;-146.19;100.00;65364.44;10311309;28;20054;-60
2022/09/30 20:39:39;;;;;;;2.72;1.83;;;;;;;-146.19;100.00;65364.44;10307629;28;20054;-60
2022/09/30 20:44:59;;;;;;;2.35;1.85;;;;;;;-146.19;100.00;65364.44;10293883;28;20054;-61
2022/09/30 20:50:33;;;;;;;2.25;1.98;;;;;;;-146.19;100.00;65364.44;10278713;28;20062;-60
2022/09/30 20:55:53;;;;;;;3.03;1.80;;;;;;;-146.19;100.00;65364.44;10298158;28;20074;-61
2022/09/30 21:01:19;;;;;;;2.22;1.85;;;;;;;-146.19;100.00;65364.44;10303466;28;20552;-59
2022/09/30 21:06:38;;;;;;;2.38;1.90;;;;;;;-146.19;100.00;65364.44;10282277;28;20050;-61
2022/09/30 21:11:57;;;;;;;3.25;2.20;;;;;;;-146.19;100.00;65364.44;10310869;28;20051;-61
2022/09/30 21:17:18;;;;;;;2.88;2.00;;;;;;;-146.19;100.00;65364.44;10292928;28;20051;-58
2022/09/30 21:22:39;;;;;;;4.72;1.92;;;;;;;-146.19;100.00;65364.44;10294738;28;20081;-60
2022/09/30 21:27:59;;;;;;;2.50;2.08;;;;;;;-146.19;100.00;65364.44;10307618;28;20125;-61
2022/09/30 21:33:19;;;;;;;2.85;2.03;;;;;;;-146.19;100.00;65364.44;10305723;28;20134;-61
2022/09/30 21:38:39;;;;;;;2.28;2.00;;;;;;;-146.19;100.00;65364.44;10301190;28;20051;-61
2022/09/30 21:43:59;;;;;;;1.92;1.80;;;;;;;-146.19;100.00;65364.44;10292716;28;20050;-61
2022/09/30 21:49:21;;;;;;;2.13;1.88;;;;;;;-146.19;100.00;65364.44;10304190;28;20074;-61
2022/09/30 21:54:41;;;;;;;2.58;1.90;;;;;;;-146.19;100.00;65364.44;10309747;28;20042;-61
2022/09/30 22:00:01;;;;;;;4.07;2.28;;;;;;;-146.19;100.00;65364.44;10282015;28;20054;-60
2022/09/30 22:05:20;;;;;;;2.30;1.88;;;;;;;-146.19;100.00;65364.44;10292707;28;20502;-61
2022/09/30 22:10:41;;;;;;;3.15;2.03;;;;;;;-146.19;100.00;65364.44;10296724;28;20165;-61
2022/09/30 22:16:05;;;;;;;2.67;2.08;;;;;;;-146.19;100.00;65364.44;10300120;28;20050;-61
2022/09/30 22:21:31;;;;;;;2.45;2.08;;;;;;;-146.19;100.00;65364.44;10295360;28;20089;-61
2022/09/30 22:26:51;;;;;;;2.15;1.85;;;;;;;-146.19;100.00;65364.44;10291973;28;20055;-61
2022/09/30 22:32:10;;;;;;;2.35;2.08;;;;;;;-146.19;100.00;65364.44;10292269;28;20078;-60
2022/09/30 22:43:25;;;;;;;2.25;1.75;;;;;;;-146.19;100.00;65364.44;10232468;28;20054;-61
2022/09/30 22:48:46;;;;;;;2.90;1.80;;;;;;;-146.19;100.00;65364.44;10310102;28;20097;-60
2022/09/30 22:54:06;;;;;;;2.35;2.00;;;;;;;-146.19;100.00;65364.44;10301851;28;20105;-61
2022/09/30 22:59:25;;;;;;;2.55;1.90;;;;;;;-146.19;100.00;65364.44;10296167;28;20065;-61
2022/09/30 23:04:45;;;;;;;2.13;1.85;;;;;;;-146.19;100.00;65364.44;10297877;28;20063;-60
2022/09/30 23:10:05;;;;;;;3.53;2.10;;;;;;;-146.19;100.00;65364.44;10294152;28;20055;-61
2022/09/30 23:15:25;;;;;;;1.80;1.70;;;;;;;-146.19;100.00;65364.44;10290140;28;20066;-61
2022/09/30 23:21:06;;;;;;;2.10;1.90;;;;;;;-146.19;100.00;65364.44;10293699;28;20055;-60
2022/09/30 23:26:28;;;;;;;2.00;1.80;;;;;;;-146.19;100.00;65364.44;10317483;28;20062;-62
2022/09/30 23:31:48;;;;;;;2.20;2.00;;;;;;;-146.19;100.00;65364.44;10284509;28;20050;-60
2022/09/30 23:37:07;;;;;;;2.00;1.80;;;;;;;-146.19;100.00;65364.44;10289133;28;20047;-60
2022/09/30 23:42:30;;;;;;;3.00;1.90;;;;;;;-146.19;100.00;65364.44;10291206;28;20050;-61
2022/09/30 23:47:50;;;;;;;2.53;1.90;;;;;;;-146.19;100.00;65364.44;10286673;28;20066;-60
2022/09/30 23:53:09;;;;;;;2.88;1.90;;;;;;;-146.19;100.00;65364.44;10308948;28;20055;-61
2022/09/30 23:58:29;;;;;;;3.60;2.30;;;;;;;-146.19;100.00;65364.44;10283747;28;20054;-61
